Terminal Aerodrome Forecast
Issued by NWS

Home | Current Version | Previous Version | Text Only | Print | Product List | Glossary On
Versions: 1 2 3 4 5 6 7 8 9 10 11 12 13
466
FTUS45 KPSR 240533
TAFBLH
TAF
KBLH 240533Z 2406/2506 34004KT P6SM SCT250
     FM241600 VRB04KT P6SM FEW250=

USA.gov is the U.S. government's official web portal to all federal, state and local government web resources and services.